sensor_id;sensor_type;location;lat;lon;timestamp;temperature;humidity
9776;DHT22;4927;52.472;13.108;2023-06-22T00:00:10;18.30;99.90
9776;DHT22;4927;52.472;13.108;2023-06-22T00:01:13;18.30;99.90
9776;DHT22;4927;52.472;13.108;2023-06-22T00:02:15;18.30;99.90
9776;DHT22;4927;52.472;13.108;2023-06-22T00:03:18;18.30;99.90
9776;DHT22;4927;52.472;13.108;2023-06-22T00:04:19;18.30;99.90
9776;DHT22;4927;52.472;13.108;2023-06-22T00:05:20;18.20;99.90
9776;DHT22;4927;52.472;13.108;2023-06-22T00:06:22;18.20;99.90
9776;DHT22;4927;52.472;13.108;2023-06-22T00:07:24;18.20;99.90
9776;DHT22;4927;52.472;13.108;2023-06-22T00:08:25;18.20;99.90
9776;DHT22;4927;52.472;13.108;2023-06-22T00:09:27;18.20;99.90
9776;DHT22;4927;52.472;13.108;2023-06-22T00:10:28;18.20;99.90
9776;DHT22;4927;52.472;13.108;2023-06-22T00:11:30;18.20;99.90
9776;DHT22;4927;52.472;13.108;2023-06-22T00:12:32;18.10;99.90
9776;DHT22;4927;52.472;13.108;2023-06-22T00:13:33;18.10;99.90
9776;DHT22;4927;52.472;13.108;2023-06-22T00:14:35;18.10;99.90
9776;DHT22;4927;52.472;13.108;2023-06-22T00:15:37;18.10;99.90
9776;DHT22;4927;52.472;13.108;2023-06-22T00:16:38;18.10;99.90
9776;DHT22;4927;52.472;13.108;2023-06-22T00:17:40;18.10;99.90
9776;DHT22;4927;52.472;13.108;2023-06-22T00:18:41;18.00;99.90
9776;DHT22;4927;52.472;13.108;2023-06-22T00:19:43;18.00;99.90
9776;DHT22;4927;52.472;13.108;2023-06-22T00:20:45;18.00;99.90
9776;DHT22;4927;52.472;13.108;2023-06-22T00:21:47;18.00;99.90
9776;DHT22;4927;52.472;13.108;2023-06-22T00:22:48;17.90;99.90
9776;DHT22;4927;52.472;13.108;2023-06-22T00:23:50;17.90;99.90
9776;DHT22;4927;52.472;13.108;2023-06-22T00:24:52;17.90;99.90
9776;DHT22;4927;52.472;13.108;2023-06-22T00:25:54;17.90;99.90
9776;DHT22;4927;52.472;13.108;2023-06-22T00:26:56;17.90;99.90
9776;DHT22;4927;52.472;13.108;2023-06-22T00:27:57;17.90;99.90
9776;DHT22;4927;52.472;13.108;2023-06-22T00:29:00;17.90;99.90
9776;DHT22;4927;52.472;13.108;2023-06-22T00:30:02;17.90;99.90
9776;DHT22;4927;52.472;13.108;2023-06-22T00:31:04;17.90;99.90
9776;DHT22;4927;52.472;13.108;2023-06-22T00:32:06;17.90;99.90
9776;DHT22;4927;52.472;13.108;2023-06-22T00:33:08;17.90;99.90
9776;DHT22;4927;52.472;13.108;2023-06-22T00:34:09;17.90;99.90
9776;DHT22;4927;52.472;13.108;2023-06-22T00:35:11;17.90;99.90
9776;DHT22;4927;52.472;13.108;2023-06-22T00:36:13;17.90;99.90
9776;DHT22;4927;52.472;13.108;2023-06-22T00:37:15;17.80;99.90
9776;DHT22;4927;52.472;13.108;2023-06-22T00:38:16;17.80;99.90
9776;DHT22;4927;52.472;13.108;2023-06-22T00:39:18;17.80;99.90
9776;DHT22;4927;52.472;13.108;2023-06-22T00:40:19;17.80;99.90
9776;DHT22;4927;52.472;13.108;2023-06-22T00:41:21;17.80;99.90
9776;DHT22;4927;52.472;13.108;2023-06-22T00:42:23;17.80;99.90
9776;DHT22;4927;52.472;13.108;2023-06-22T00:43:24;17.80;99.90
9776;DHT22;4927;52.472;13.108;2023-06-22T00:44:27;17.80;99.90
9776;DHT22;4927;52.472;13.108;2023-06-22T00:45:28;17.80;99.90
9776;DHT22;4927;52.472;13.108;2023-06-22T00:46:30;17.70;99.90
9776;DHT22;4927;52.472;13.108;2023-06-22T00:47:31;17.70;99.90
9776;DHT22;4927;52.472;13.108;2023-06-22T00:48:33;17.70;99.90
9776;DHT22;4927;52.472;13.108;2023-06-22T00:49:35;17.70;99.90
9776;DHT22;4927;52.472;13.108;2023-06-22T00:50:43;17.70;99.90
9776;DHT22;4927;52.472;13.108;2023-06-22T00:51:45;17.70;99.90
9776;DHT22;4927;52.472;13.108;2023-06-22T00:52:52;17.70;99.90
9776;DHT22;4927;52.472;13.108;2023-06-22T00:53:52;17.70;99.90
9776;DHT22;4927;52.472;13.108;2023-06-22T00:54:55;17.70;99.90
9776;DHT22;4927;52.472;13.108;2023-06-22T00:55:56;17.70;99.90
9776;DHT22;4927;52.472;13.108;2023-06-22T00:56:57;17.70;99.90
9776;DHT22;4927;52.472;13.108;2023-06-22T00:57:59;17.70;99.90
9776;DHT22;4927;52.472;13.108;2023-06-22T00:59:01;17.70;99.90
9776;DHT22;4927;52.472;13.108;2023-06-22T01:00:03;17.60;99.90
9776;DHT22;4927;52.472;13.108;2023-06-22T01:01:05;17.60;99.90
9776;DHT22;4927;52.472;13.108;2023-06-22T01:02:07;17.60;99.90
9776;DHT22;4927;52.472;13.108;2023-06-22T01:03:09;17.60;99.90
9776;DHT22;4927;52.472;13.108;2023-06-22T01:04:10;17.60;99.90
9776;DHT22;4927;52.472;13.108;2023-06-22T01:05:13;17.60;99.90
9776;DHT22;4927;52.472;13.108;2023-06-22T01:06:15;17.60;99.90
9776;DHT22;4927;52.472;13.108;2023-06-22T01:07:27;17.60;99.90
9776;DHT22;4927;52.472;13.108;2023-06-22T01:08:37;17.60;99.90
9776;DHT22;4927;52.472;13.108;2023-06-22T01:09:46;17.60;99.90
9776;DHT22;4927;52.472;13.108;2023-06-22T01:12:09;17.60;99.90
9776;DHT22;4927;52.472;13.108;2023-06-22T01:13:50;17.60;99.90
9776;DHT22;4927;52.472;13.108;2023-06-22T01:14:41;17.60;99.90
9776;DHT22;4927;52.472;13.108;2023-06-22T01:15:44;17.50;99.90
9776;DHT22;4927;52.472;13.108;2023-06-22T01:16:45;17.50;99.90
9776;DHT22;4927;52.472;13.108;2023-06-22T01:17:47;17.50;99.90
9776;DHT22;4927;52.472;13.108;2023-06-22T01:18:49;17.50;99.90
9776;DHT22;4927;52.472;13.108;2023-06-22T01:19:51;17.50;99.90
9776;DHT22;4927;52.472;13.108;2023-06-22T01:20:53;17.40;99.90
9776;DHT22;4927;52.472;13.108;2023-06-22T01:21:55;17.40;99.90
9776;DHT22;4927;52.472;13.108;2023-06-22T01:23:05;17.40;99.90
9776;DHT22;4927;52.472;13.108;2023-06-22T01:24:33;17.40;99.90
9776;DHT22;4927;52.472;13.108;2023-06-22T01:25:51;17.40;99.90
9776;DHT22;4927;52.472;13.108;2023-06-22T01:26:58;17.30;99.90
9776;DHT22;4927;52.472;13.108;2023-06-22T01:28:11;17.30;99.90
9776;DHT22;4927;52.472;13.108;2023-06-22T01:29:11;17.30;99.90
9776;DHT22;4927;52.472;13.108;2023-06-22T01:30:13;17.30;99.90
9776;DHT22;4927;52.472;13.108;2023-06-22T01:31:15;17.30;99.90
9776;DHT22;4927;52.472;13.108;2023-06-22T01:32:16;17.30;99.90
9776;DHT22;4927;52.472;13.108;2023-06-22T01:33:17;17.30;99.90
9776;DHT22;4927;52.472;13.108;2023-06-22T01:34:19;17.30;99.90
9776;DHT22;4927;52.472;13.108;2023-06-22T01:35:20;17.30;99.90
9776;DHT22;4927;52.472;13.108;2023-06-22T01:36:22;17.30;99.90
9776;DHT22;4927;52.472;13.108;2023-06-22T01:37:24;17.30;99.90
9776;DHT22;4927;52.472;13.108;2023-06-22T01:38:25;17.30;99.90
9776;DHT22;4927;52.472;13.108;2023-06-22T01:39:27;17.30;99.90
9776;DHT22;4927;52.472;13.108;2023-06-22T01:40:29;17.30;99.90
9776;DHT22;4927;52.472;13.108;2023-06-22T01:41:36;17.30;99.90
9776;DHT22;4927;52.472;13.108;2023-06-22T01:42:33;17.30;99.90
9776;DHT22;4927;52.472;13.108;2023-06-22T01:43:34;17.20;99.90
9776;DHT22;4927;52.472;13.108;2023-06-22T01:44:36;17.30;99.90
9776;DHT22;4927;52.472;13.108;2023-06-22T01:45:38;17.30;99.90
9776;DHT22;4927;52.472;13.108;2023-06-22T01:46:40;17.30;99.90
9776;DHT22;4927;52.472;13.108;2023-06-22T01:47:42;17.30;99.90
9776;DHT22;4927;52.472;13.108;2023-06-22T01:48:44;17.30;99.90
9776;DHT22;4927;52.472;13.108;2023-06-22T01:49:46;17.30;99.90
9776;DHT22;4927;52.472;13.108;2023-06-22T01:50:47;17.20;99.90
9776;DHT22;4927;52.472;13.108;2023-06-22T01:51:49;17.20;99.90
9776;DHT22;4927;52.472;13.108;2023-06-22T01:52:50;17.20;99.90
9776;DHT22;4927;52.472;13.108;2023-06-22T01:53:53;17.20;99.90
9776;DHT22;4927;52.472;13.108;2023-06-22T01:54:55;17.10;99.90
9776;DHT22;4927;52.472;13.108;2023-06-22T01:55:56;17.20;99.90
9776;DHT22;4927;52.472;13.108;2023-06-22T01:56:58;17.20;99.90
9776;DHT22;4927;52.472;13.108;2023-06-22T01:58:00;17.10;99.90
9776;DHT22;4927;52.472;13.108;2023-06-22T01:59:23;17.10;99.90
9776;DHT22;4927;52.472;13.108;2023-06-22T02:00:22;17.10;99.90
9776;DHT22;4927;52.472;13.108;2023-06-22T02:01:25;17.10;99.90
9776;DHT22;4927;52.472;13.108;2023-06-22T02:02:27;17.10;99.90
9776;DHT22;4927;52.472;13.108;2023-06-22T02:03:31;17.10;99.90
9776;DHT22;4927;52.472;13.108;2023-06-22T02:04:34;17.10;99.90
9776;DHT22;4927;52.472;13.108;2023-06-22T02:05:38;17.10;99.90
9776;DHT22;4927;52.472;13.108;2023-06-22T02:06:39;17.10;99.90
9776;DHT22;4927;52.472;13.108;2023-06-22T02:07:44;17.10;99.90
9776;DHT22;4927;52.472;13.108;2023-06-22T02:08:47;17.10;99.90
9776;DHT22;4927;52.472;13.108;2023-06-22T02:09:48;17.10;99.90
9776;DHT22;4927;52.472;13.108;2023-06-22T02:10:50;17.10;99.90
9776;DHT22;4927;52.472;13.108;2023-06-22T02:11:51;17.10;99.90
9776;DHT22;4927;52.472;13.108;2023-06-22T02:12:53;17.10;99.90
9776;DHT22;4927;52.472;13.108;2023-06-22T02:13:55;17.10;99.90
9776;DHT22;4927;52.472;13.108;2023-06-22T02:14:56;17.00;99.90
9776;DHT22;4927;52.472;13.108;2023-06-22T02:15:58;17.00;99.90
9776;DHT22;4927;52.472;13.108;2023-06-22T02:16:59;17.10;99.90
9776;DHT22;4927;52.472;13.108;2023-06-22T02:18:02;17.10;99.90
9776;DHT22;4927;52.472;13.108;2023-06-22T02:19:03;17.00;99.90
9776;DHT22;4927;52.472;13.108;2023-06-22T02:20:06;17.00;99.90
9776;DHT22;4927;52.472;13.108;2023-06-22T02:21:09;17.00;99.90
9776;DHT22;4927;52.472;13.108;2023-06-22T02:22:11;17.10;99.90
9776;DHT22;4927;52.472;13.108;2023-06-22T02:23:12;17.10;99.90
9776;DHT22;4927;52.472;13.108;2023-06-22T02:24:15;17.10;99.90
9776;DHT22;4927;52.472;13.108;2023-06-22T02:25:16;17.10;99.90
9776;DHT22;4927;52.472;13.108;2023-06-22T02:26:18;17.10;99.90
9776;DHT22;4927;52.472;13.108;2023-06-22T02:27:20;17.10;99.90
9776;DHT22;4927;52.472;13.108;2023-06-22T02:28:22;17.10;99.90
9776;DHT22;4927;52.472;13.108;2023-06-22T02:29:23;17.10;99.90
9776;DHT22;4927;52.472;13.108;2023-06-22T02:30:25;17.10;99.90
9776;DHT22;4927;52.472;13.108;2023-06-22T02:31:27;17.10;99.90
9776;DHT22;4927;52.472;13.108;2023-06-22T02:32:28;17.10;99.90
9776;DHT22;4927;52.472;13.108;2023-06-22T02:33:31;17.10;99.90
9776;DHT22;4927;52.472;13.108;2023-06-22T02:34:33;17.10;99.90
9776;DHT22;4927;52.472;13.108;2023-06-22T02:35:35;17.10;99.90
9776;DHT22;4927;52.472;13.108;2023-06-22T02:36:36;17.10;99.90
9776;DHT22;4927;52.472;13.108;2023-06-22T02:37:39;17.10;99.90
9776;DHT22;4927;52.472;13.108;2023-06-22T02:38:41;17.10;99.90
9776;DHT22;4927;52.472;13.108;2023-06-22T02:39:42;17.10;99.90
9776;DHT22;4927;52.472;13.108;2023-06-22T02:40:44;17.20;99.90
9776;DHT22;4927;52.472;13.108;2023-06-22T02:41:46;17.20;99.90
9776;DHT22;4927;52.472;13.108;2023-06-22T02:42:47;17.20;99.90
9776;DHT22;4927;52.472;13.108;2023-06-22T02:43:49;17.20;99.90
9776;DHT22;4927;52.472;13.108;2023-06-22T02:44:51;17.20;99.90
9776;DHT22;4927;52.472;13.108;2023-06-22T02:45:52;17.20;99.90
9776;DHT22;4927;52.472;13.108;2023-06-22T02:46:54;17.20;99.90
9776;DHT22;4927;52.472;13.108;2023-06-22T02:47:56;17.20;99.90
9776;DHT22;4927;52.472;13.108;2023-06-22T02:48:57;17.20;99.90
9776;DHT22;4927;52.472;13.108;2023-06-22T02:50:00;17.30;99.90
9776;DHT22;4927;52.472;13.108;2023-06-22T02:51:01;17.20;99.90
9776;DHT22;4927;52.472;13.108;2023-06-22T02:52:03;17.20;99.90
9776;DHT22;4927;52.472;13.108;2023-06-22T02:53:05;17.30;99.90
9776;DHT22;4927;52.472;13.108;2023-06-22T02:54:07;17.30;99.90
9776;DHT22;4927;52.472;13.108;2023-06-22T02:55:09;17.30;99.90
9776;DHT22;4927;52.472;13.108;2023-06-22T02:56:10;17.30;99.90
9776;DHT22;4927;52.472;13.108;2023-06-22T02:57:12;17.30;99.90
9776;DHT22;4927;52.472;13.108;2023-06-22T02:58:14;17.40;99.90
9776;DHT22;4927;52.472;13.108;2023-06-22T02:59:16;17.30;99.90
9776;DHT22;4927;52.472;13.108;2023-06-22T03:00:18;17.30;99.90
9776;DHT22;4927;52.472;13.108;2023-06-22T03:01:19;17.30;99.90
9776;DHT22;4927;52.472;13.108;2023-06-22T03:02:22;17.40;99.90
9776;DHT22;4927;52.472;13.108;2023-06-22T03:03:23;17.30;99.90
9776;DHT22;4927;52.472;13.108;2023-06-22T03:04:25;17.40;99.90
9776;DHT22;4927;52.472;13.108;2023-06-22T03:05:27;17.40;99.90
9776;DHT22;4927;52.472;13.108;2023-06-22T03:06:28;17.40;99.90
9776;DHT22;4927;52.472;13.108;2023-06-22T03:07:30;17.40;99.90
9776;DHT22;4927;52.472;13.108;2023-06-22T03:08:31;17.40;99.90
9776;DHT22;4927;52.472;13.108;2023-06-22T03:09:33;17.50;99.90
9776;DHT22;4927;52.472;13.108;2023-06-22T03:10:35;17.40;99.90
9776;DHT22;4927;52.472;13.108;2023-06-22T03:11:36;17.50;99.90
9776;DHT22;4927;52.472;13.108;2023-06-22T03:12:38;17.50;99.90
9776;DHT22;4927;52.472;13.108;2023-06-22T03:13:40;17.50;99.90
9776;DHT22;4927;52.472;13.108;2023-06-22T03:14:41;17.50;99.90
9776;DHT22;4927;52.472;13.108;2023-06-22T03:15:43;17.50;99.90
9776;DHT22;4927;52.472;13.108;2023-06-22T03:16:44;17.50;99.90
9776;DHT22;4927;52.472;13.108;2023-06-22T03:17:46;17.50;99.90
9776;DHT22;4927;52.472;13.108;2023-06-22T03:18:48;17.50;99.90
9776;DHT22;4927;52.472;13.108;2023-06-22T03:19:49;17.50;99.90
9776;DHT22;4927;52.472;13.108;2023-06-22T03:20:51;17.50;99.90
9776;DHT22;4927;52.472;13.108;2023-06-22T03:21:52;17.50;99.90
9776;DHT22;4927;52.472;13.108;2023-06-22T03:22:54;17.50;99.90
9776;DHT22;4927;52.472;13.108;2023-06-22T03:23:56;17.50;99.90
9776;DHT22;4927;52.472;13.108;2023-06-22T03:24:58;17.50;99.90
9776;DHT22;4927;52.472;13.108;2023-06-22T03:26:00;17.50;99.90
9776;DHT22;4927;52.472;13.108;2023-06-22T03:27:03;17.50;99.90
9776;DHT22;4927;52.472;13.108;2023-06-22T03:28:06;17.50;99.90
9776;DHT22;4927;52.472;13.108;2023-06-22T03:29:07;17.50;99.90
9776;DHT22;4927;52.472;13.108;2023-06-22T03:30:10;17.50;99.90
9776;DHT22;4927;52.472;13.108;2023-06-22T03:31:12;17.60;99.90
9776;DHT22;4927;52.472;13.108;2023-06-22T03:32:14;17.60;99.90
9776;DHT22;4927;52.472;13.108;2023-06-22T03:33:15;17.60;99.90
9776;DHT22;4927;52.472;13.108;2023-06-22T03:34:17;17.60;99.90
9776;DHT22;4927;52.472;13.108;2023-06-22T03:35:19;17.60;99.90
9776;DHT22;4927;52.472;13.108;2023-06-22T03:36:20;17.70;99.90
9776;DHT22;4927;52.472;13.108;2023-06-22T03:37:22;17.70;99.90
9776;DHT22;4927;52.472;13.108;2023-06-22T03:38:24;17.70;99.90
9776;DHT22;4927;52.472;13.108;2023-06-22T03:39:25;17.70;99.90
9776;DHT22;4927;52.472;13.108;2023-06-22T03:40:27;17.70;99.90
9776;DHT22;4927;52.472;13.108;2023-06-22T03:41:29;17.70;99.90
9776;DHT22;4927;52.472;13.108;2023-06-22T03:42:30;17.80;99.90
9776;DHT22;4927;52.472;13.108;2023-06-22T03:43:32;17.80;99.90
9776;DHT22;4927;52.472;13.108;2023-06-22T03:44:34;17.80;99.90
9776;DHT22;4927;52.472;13.108;2023-06-22T03:45:35;17.80;99.90
9776;DHT22;4927;52.472;13.108;2023-06-22T03:46:37;17.80;99.90
9776;DHT22;4927;52.472;13.108;2023-06-22T03:47:40;17.90;99.90
9776;DHT22;4927;52.472;13.108;2023-06-22T03:48:41;17.80;99.90
9776;DHT22;4927;52.472;13.108;2023-06-22T03:49:43;17.90;99.90
9776;DHT22;4927;52.472;13.108;2023-06-22T03:50:44;17.90;99.90
9776;DHT22;4927;52.472;13.108;2023-06-22T03:51:46;17.90;99.90
9776;DHT22;4927;52.472;13.108;2023-06-22T03:52:47;17.90;99.90
9776;DHT22;4927;52.472;13.108;2023-06-22T03:53:50;17.90;99.90
9776;DHT22;4927;52.472;13.108;2023-06-22T03:54:51;17.90;99.90
9776;DHT22;4927;52.472;13.108;2023-06-22T03:55:53;17.90;99.90
9776;DHT22;4927;52.472;13.108;2023-06-22T03:56:56;17.90;99.90
9776;DHT22;4927;52.472;13.108;2023-06-22T03:57:56;17.90;99.90
9776;DHT22;4927;52.472;13.108;2023-06-22T03:58:58;17.90;99.90
9776;DHT22;4927;52.472;13.108;2023-06-22T04:00:00;17.90;99.90
9776;DHT22;4927;52.472;13.108;2023-06-22T04:01:01;17.90;99.90
9776;DHT22;4927;52.472;13.108;2023-06-22T04:02:03;17.90;99.90
9776;DHT22;4927;52.472;13.108;2023-06-22T04:03:05;17.90;99.90
9776;DHT22;4927;52.472;13.108;2023-06-22T04:04:07;17.90;99.90
9776;DHT22;4927;52.472;13.108;2023-06-22T04:05:09;17.90;99.90
9776;DHT22;4927;52.472;13.108;2023-06-22T04:06:10;18.00;99.90
9776;DHT22;4927;52.472;13.108;2023-06-22T04:07:13;18.00;99.90
9776;DHT22;4927;52.472;13.108;2023-06-22T04:08:15;18.10;99.90
9776;DHT22;4927;52.472;13.108;2023-06-22T04:09:17;18.00;99.90
9776;DHT22;4927;52.472;13.108;2023-06-22T04:10:18;18.00;99.90
9776;DHT22;4927;52.472;13.108;2023-06-22T04:11:20;18.10;99.90
9776;DHT22;4927;52.472;13.108;2023-06-22T04:12:22;18.10;99.90
9776;DHT22;4927;52.472;13.108;2023-06-22T04:13:24;18.10;99.90
9776;DHT22;4927;52.472;13.108;2023-06-22T04:14:26;18.10;99.90
9776;DHT22;4927;52.472;13.108;2023-06-22T04:15:27;18.10;99.90
9776;DHT22;4927;52.472;13.108;2023-06-22T04:16:29;18.20;99.90
9776;DHT22;4927;52.472;13.108;2023-06-22T04:17:31;18.20;99.90
9776;DHT22;4927;52.472;13.108;2023-06-22T04:18:33;18.20;99.90
9776;DHT22;4927;52.472;13.108;2023-06-22T04:19:35;18.20;99.90
9776;DHT22;4927;52.472;13.108;2023-06-22T04:20:36;18.20;99.90
9776;DHT22;4927;52.472;13.108;2023-06-22T04:21:38;18.30;99.90
9776;DHT22;4927;52.472;13.108;2023-06-22T04:22:39;18.30;99.90
9776;DHT22;4927;52.472;13.108;2023-06-22T04:23:42;18.40;99.90
9776;DHT22;4927;52.472;13.108;2023-06-22T04:24:44;18.30;99.90
9776;DHT22;4927;52.472;13.108;2023-06-22T04:25:45;18.40;99.90
9776;DHT22;4927;52.472;13.108;2023-06-22T04:26:47;18.40;99.90
9776;DHT22;4927;52.472;13.108;2023-06-22T04:27:48;18.40;99.90
9776;DHT22;4927;52.472;13.108;2023-06-22T04:28:50;18.50;99.90
9776;DHT22;4927;52.472;13.108;2023-06-22T04:29:51;18.50;99.90
9776;DHT22;4927;52.472;13.108;2023-06-22T04:30:53;18.50;99.90
9776;DHT22;4927;52.472;13.108;2023-06-22T04:31:56;18.50;99.90
9776;DHT22;4927;52.472;13.108;2023-06-22T04:32:58;18.60;99.90
9776;DHT22;4927;52.472;13.108;2023-06-22T04:34:00;18.70;99.90
9776;DHT22;4927;52.472;13.108;2023-06-22T04:35:03;18.70;99.90
9776;DHT22;4927;52.472;13.108;2023-06-22T04:36:06;18.70;99.90
9776;DHT22;4927;52.472;13.108;2023-06-22T04:37:07;18.80;99.90
9776;DHT22;4927;52.472;13.108;2023-06-22T04:38:09;18.90;99.90
9776;DHT22;4927;52.472;13.108;2023-06-22T04:39:11;18.90;99.90
9776;DHT22;4927;52.472;13.108;2023-06-22T04:40:12;19.00;99.90
9776;DHT22;4927;52.472;13.108;2023-06-22T04:41:14;19.10;99.90
9776;DHT22;4927;52.472;13.108;2023-06-22T04:42:16;19.10;99.90
9776;DHT22;4927;52.472;13.108;2023-06-22T04:43:17;19.20;99.90
9776;DHT22;4927;52.472;13.108;2023-06-22T04:44:19;19.30;99.90
9776;DHT22;4927;52.472;13.108;2023-06-22T04:45:21;19.30;99.90
9776;DHT22;4927;52.472;13.108;2023-06-22T04:46:22;19.40;99.90
9776;DHT22;4927;52.472;13.108;2023-06-22T04:47:24;19.40;99.90
9776;DHT22;4927;52.472;13.108;2023-06-22T04:48:26;19.40;99.90
9776;DHT22;4927;52.472;13.108;2023-06-22T04:49:28;19.50;99.90
9776;DHT22;4927;52.472;13.108;2023-06-22T04:50:30;19.50;99.90
9776;DHT22;4927;52.472;13.108;2023-06-22T04:51:32;19.50;99.90
9776;DHT22;4927;52.472;13.108;2023-06-22T04:52:33;19.60;99.90
9776;DHT22;4927;52.472;13.108;2023-06-22T04:53:35;19.60;99.90
9776;DHT22;4927;52.472;13.108;2023-06-22T04:54:37;19.60;99.90
9776;DHT22;4927;52.472;13.108;2023-06-22T04:55:39;19.60;99.90
9776;DHT22;4927;52.472;13.108;2023-06-22T04:56:40;19.60;99.90
9776;DHT22;4927;52.472;13.108;2023-06-22T04:57:42;19.70;99.90
9776;DHT22;4927;52.472;13.108;2023-06-22T04:58:44;19.70;99.90
9776;DHT22;4927;52.472;13.108;2023-06-22T04:59:45;19.70;99.90
9776;DHT22;4927;52.472;13.108;2023-06-22T05:00:48;19.80;99.90
9776;DHT22;4927;52.472;13.108;2023-06-22T05:01:49;19.80;99.90
9776;DHT22;4927;52.472;13.108;2023-06-22T05:02:51;19.80;99.90
9776;DHT22;4927;52.472;13.108;2023-06-22T05:03:53;19.90;99.90
9776;DHT22;4927;52.472;13.108;2023-06-22T05:04:57;19.90;99.90
9776;DHT22;4927;52.472;13.108;2023-06-22T05:05:58;19.90;99.90
9776;DHT22;4927;52.472;13.108;2023-06-22T05:07:00;20.00;99.90
9776;DHT22;4927;52.472;13.108;2023-06-22T05:08:02;20.00;99.90
9776;DHT22;4927;52.472;13.108;2023-06-22T05:09:03;20.00;99.90
9776;DHT22;4927;52.472;13.108;2023-06-22T05:10:05;20.00;99.90
9776;DHT22;4927;52.472;13.108;2023-06-22T05:11:08;20.00;99.90
9776;DHT22;4927;52.472;13.108;2023-06-22T05:12:09;20.10;99.90
9776;DHT22;4927;52.472;13.108;2023-06-22T05:13:11;20.10;99.90
9776;DHT22;4927;52.472;13.108;2023-06-22T05:14:13;20.10;99.90
9776;DHT22;4927;52.472;13.108;2023-06-22T05:15:14;20.10;99.90
9776;DHT22;4927;52.472;13.108;2023-06-22T05:16:16;20.20;99.90
9776;DHT22;4927;52.472;13.108;2023-06-22T05:17:18;20.20;99.90
9776;DHT22;4927;52.472;13.108;2023-06-22T05:18:19;20.20;99.90
9776;DHT22;4927;52.472;13.108;2023-06-22T05:19:21;20.20;99.90
9776;DHT22;4927;52.472;13.108;2023-06-22T05:20:22;20.30;99.90
9776;DHT22;4927;52.472;13.108;2023-06-22T05:21:25;20.30;99.90
9776;DHT22;4927;52.472;13.108;2023-06-22T05:22:26;20.30;99.90
9776;DHT22;4927;52.472;13.108;2023-06-22T05:23:27;20.30;99.90
9776;DHT22;4927;52.472;13.108;2023-06-22T05:24:29;20.30;99.90
9776;DHT22;4927;52.472;13.108;2023-06-22T05:25:32;20.40;99.90
9776;DHT22;4927;52.472;13.108;2023-06-22T05:26:33;20.40;99.90
9776;DHT22;4927;52.472;13.108;2023-06-22T05:27:36;20.40;99.90
9776;DHT22;4927;52.472;13.108;2023-06-22T05:28:39;20.40;99.90
9776;DHT22;4927;52.472;13.108;2023-06-22T05:29:41;20.40;99.90
9776;DHT22;4927;52.472;13.108;2023-06-22T05:30:43;20.50;99.90
9776;DHT22;4927;52.472;13.108;2023-06-22T05:31:44;20.50;99.90
9776;DHT22;4927;52.472;13.108;2023-06-22T05:32:46;20.50;99.90
9776;DHT22;4927;52.472;13.108;2023-06-22T05:33:49;20.50;99.90
9776;DHT22;4927;52.472;13.108;2023-06-22T05:34:49;20.50;99.90
9776;DHT22;4927;52.472;13.108;2023-06-22T05:35:51;20.60;99.90
9776;DHT22;4927;52.472;13.108;2023-06-22T05:36:53;20.60;99.90
9776;DHT22;4927;52.472;13.108;2023-06-22T05:37:55;20.60;99.90
9776;DHT22;4927;52.472;13.108;2023-06-22T05:38:57;20.60;99.90
9776;DHT22;4927;52.472;13.108;2023-06-22T05:39:58;20.70;99.90
9776;DHT22;4927;52.472;13.108;2023-06-22T05:41:00;20.70;99.90
9776;DHT22;4927;52.472;13.108;2023-06-22T05:42:04;20.80;99.90
9776;DHT22;4927;52.472;13.108;2023-06-22T05:43:06;20.80;99.90
9776;DHT22;4927;52.472;13.108;2023-06-22T05:44:08;20.80;99.90
9776;DHT22;4927;52.472;13.108;2023-06-22T05:45:09;20.90;99.90
9776;DHT22;4927;52.472;13.108;2023-06-22T05:46:12;21.00;99.90
9776;DHT22;4927;52.472;13.108;2023-06-22T05:47:14;21.00;99.90
9776;DHT22;4927;52.472;13.108;2023-06-22T05:48:16;21.00;99.90
9776;DHT22;4927;52.472;13.108;2023-06-22T05:49:17;21.10;99.90
9776;DHT22;4927;52.472;13.108;2023-06-22T05:50:19;21.10;99.90
9776;DHT22;4927;52.472;13.108;2023-06-22T05:51:21;21.10;99.90
9776;DHT22;4927;52.472;13.108;2023-06-22T05:52:22;21.20;99.90
9776;DHT22;4927;52.472;13.108;2023-06-22T05:53:24;21.20;99.90
9776;DHT22;4927;52.472;13.108;2023-06-22T05:54:27;21.20;99.90
9776;DHT22;4927;52.472;13.108;2023-06-22T05:55:28;21.20;99.90
9776;DHT22;4927;52.472;13.108;2023-06-22T05:56:30;21.20;99.90
9776;DHT22;4927;52.472;13.108;2023-06-22T05:57:32;21.20;99.90
9776;DHT22;4927;52.472;13.108;2023-06-22T05:58:34;21.30;99.90
9776;DHT22;4927;52.472;13.108;2023-06-22T05:59:35;21.30;99.90
9776;DHT22;4927;52.472;13.108;2023-06-22T06:00:37;21.30;99.90
9776;DHT22;4927;52.472;13.108;2023-06-22T06:01:38;21.30;99.90
9776;DHT22;4927;52.472;13.108;2023-06-22T06:02:40;21.30;99.90
9776;DHT22;4927;52.472;13.108;2023-06-22T06:03:49;21.30;99.90
9776;DHT22;4927;52.472;13.108;2023-06-22T06:04:51;21.30;99.90
9776;DHT22;4927;52.472;13.108;2023-06-22T06:05:53;21.30;99.90
9776;DHT22;4927;52.472;13.108;2023-06-22T06:06:54;21.40;99.90
9776;DHT22;4927;52.472;13.108;2023-06-22T06:07:56;21.40;99.90
9776;DHT22;4927;52.472;13.108;2023-06-22T06:08:57;21.40;99.90
9776;DHT22;4927;52.472;13.108;2023-06-22T06:09:59;21.40;99.90
9776;DHT22;4927;52.472;13.108;2023-06-22T06:11:01;21.40;99.90
9776;DHT22;4927;52.472;13.108;2023-06-22T06:12:03;21.40;99.90
9776;DHT22;4927;52.472;13.108;2023-06-22T06:13:06;21.50;99.90
9776;DHT22;4927;52.472;13.108;2023-06-22T06:14:08;21.50;99.90
9776;DHT22;4927;52.472;13.108;2023-06-22T06:15:10;21.50;99.90
9776;DHT22;4927;52.472;13.108;2023-06-22T06:16:12;21.60;99.90
9776;DHT22;4927;52.472;13.108;2023-06-22T06:17:14;21.60;99.90
9776;DHT22;4927;52.472;13.108;2023-06-22T06:18:16;21.60;99.90
9776;DHT22;4927;52.472;13.108;2023-06-22T06:19:18;21.60;99.90
9776;DHT22;4927;52.472;13.108;2023-06-22T06:20:20;21.60;99.90
9776;DHT22;4927;52.472;13.108;2023-06-22T06:21:21;21.70;99.90
9776;DHT22;4927;52.472;13.108;2023-06-22T06:22:23;21.70;99.90
9776;DHT22;4927;52.472;13.108;2023-06-22T06:23:24;21.70;99.90
9776;DHT22;4927;52.472;13.108;2023-06-22T06:24:26;21.70;99.90
9776;DHT22;4927;52.472;13.108;2023-06-22T06:25:28;21.80;99.90
9776;DHT22;4927;52.472;13.108;2023-06-22T06:26:30;21.80;99.90
9776;DHT22;4927;52.472;13.108;2023-06-22T06:27:32;21.90;99.90
9776;DHT22;4927;52.472;13.108;2023-06-22T06:28:34;21.90;99.90
9776;DHT22;4927;52.472;13.108;2023-06-22T06:29:35;21.90;99.90
9776;DHT22;4927;52.472;13.108;2023-06-22T06:30:37;21.90;99.90
9776;DHT22;4927;52.472;13.108;2023-06-22T06:31:39;21.90;99.90
9776;DHT22;4927;52.472;13.108;2023-06-22T06:32:41;22.00;99.90
9776;DHT22;4927;52.472;13.108;2023-06-22T06:33:42;22.00;99.90
9776;DHT22;4927;52.472;13.108;2023-06-22T06:34:44;22.00;99.90
9776;DHT22;4927;52.472;13.108;2023-06-22T06:35:45;22.00;99.90
9776;DHT22;4927;52.472;13.108;2023-06-22T06:36:47;22.10;99.90
9776;DHT22;4927;52.472;13.108;2023-06-22T06:37:49;22.10;99.90
9776;DHT22;4927;52.472;13.108;2023-06-22T06:38:50;22.10;99.90
9776;DHT22;4927;52.472;13.108;2023-06-22T06:39:52;22.10;99.90